Time;durP1;ratioP1;P1;durP2;ratioP2;P2;SDS_P1;SDS_P2;PMS_P1;PMS_P2;Temp;Humidity;BMP_temperature;BMP_pressure;BME280_temperature;BME280_humidity;BME280_pressure;Samples;Min_cycle;Max_cycle;Signal;HPM_P1;HPM_P2
2022/08/22 00:00:11;;;;;;;2.17;1.40;;;27.20;70.90;;;;;;4975438;28;20552;-82
2022/08/22 00:02:47;;;;;;;1.67;1.33;;;27.20;70.90;;;;;;4975654;28;20445;-90
2022/08/22 00:05:28;;;;;;;1.50;1.40;;;27.20;70.90;;;;;;4975346;28;20472;-93
2022/08/22 00:08:07;;;;;;;2.03;1.37;;;27.20;70.90;;;;;;4975658;28;20524;-83
2022/08/22 00:10:50;;;;;;;2.80;1.67;;;27.20;70.90;;;;;;4975400;28;20496;-82
2022/08/22 00:13:24;;;;;;;1.53;1.20;;;27.20;70.90;;;;;;4975398;28;20456;-82
2022/08/22 00:16:02;;;;;;;1.47;1.20;;;27.20;71.00;;;;;;4975303;28;20445;-82
2022/08/22 00:18:34;;;;;;;2.17;1.30;;;27.20;71.00;;;;;;4975388;28;20442;-91
2022/08/22 00:21:09;;;;;;;1.73;1.30;;;27.20;71.00;;;;;;4975157;28;20525;-86
2022/08/22 00:23:42;;;;;;;2.73;1.33;;;27.20;71.00;;;;;;4975347;28;20528;-82
2022/08/22 00:26:19;;;;;;;1.77;1.50;;;27.20;71.00;;;;;;4975164;28;20438;-92
2022/08/22 00:28:52;;;;;;;1.30;1.20;;;27.20;71.00;;;;;;4975170;28;20443;-82
2022/08/22 00:31:26;;;;;;;1.67;1.57;;;27.20;71.00;;;;;;4975097;28;20457;-82
2022/08/22 00:34:00;;;;;;;1.43;1.33;;;27.20;71.00;;;;;;4975045;28;20452;-94
2022/08/22 00:36:36;;;;;;;1.60;1.33;;;27.20;71.00;;;;;;4975146;28;20453;-84
2022/08/22 00:39:12;;;;;;;2.07;1.40;;;27.20;71.90;;;;;;4975182;28;20445;-86
2022/08/22 00:42:09;;;;;;;1.47;1.37;;;27.20;71.10;;;;;;4975166;28;20880;-90
2022/08/22 00:45:08;;;;;;;1.50;1.40;;;27.20;71.10;;;;;;4974988;28;20481;-87
2022/08/22 00:47:50;;;;;;;1.20;1.10;;;27.20;71.10;;;;;;4975400;28;20540;-83
2022/08/22 00:50:44;;;;;;;1.30;1.20;;;27.20;71.10;;;;;;4974836;28;20580;-93
2022/08/22 00:53:41;;;;;;;1.40;1.30;;;27.20;71.10;;;;;;4983512;28;20929;-85
2022/08/22 00:56:45;;;;;;;1.17;1.07;;;27.20;71.10;;;;;;4988493;28;20449;-88
2022/08/22 00:59:30;;;;;;;1.70;1.60;;;27.20;71.20;;;;;;4896689;29;20875;-93
2022/08/22 01:02:07;;;;;;;1.60;1.50;;;27.20;71.20;;;;;;4969670;28;20556;-83
2022/08/22 01:04:49;;;;;;;1.73;1.40;;;27.20;71.20;;;;;;4974806;28;20448;-94
2022/08/22 01:07:42;;;;;;;1.90;1.47;;;27.20;71.20;;;;;;4974773;28;20961;-86
2022/08/22 01:10:25;;;;;;;1.30;1.20;;;27.20;71.20;;;;;;4974537;28;20572;-83
2022/08/22 01:13:13;;;;;;;1.77;1.20;;;27.20;71.20;;;;;;4974630;28;20945;-94
2022/08/22 01:15:42;;;;;;;2.00;1.73;;;27.20;71.20;;;;;;4974537;28;20473;-83
2022/08/22 01:18:35;;;;;;;1.77;1.67;;;27.20;71.30;;;;;;4974378;28;20449;-83
2022/08/22 01:21:36;;;;;;;1.47;1.37;;;27.20;71.30;;;;;;4974367;28;20477;-94
2022/08/22 01:25:16;;;;;;;1.40;1.30;;;27.20;71.30;;;;;;4974407;28;20452;-93
2022/08/22 01:28:10;;;;;;;1.70;1.40;;;27.20;71.40;;;;;;4974128;28;20492;-95
2022/08/22 01:31:02;;;;;;;1.83;1.40;;;27.20;71.40;;;;;;4973855;28;20841;-83
2022/08/22 01:34:24;;;;;;;1.70;1.60;;;27.10;71.60;;;;;;4957935;28;20492;-83
2022/08/22 01:37:26;;;;;;;1.50;1.40;;;27.10;71.40;;;;;;4943326;28;21003;-82
2022/08/22 01:40:29;;;;;;;3.63;1.10;;;27.10;71.50;;;;;;4974304;28;20444;-83
2022/08/22 01:43:06;;;;;;;2.20;1.40;;;27.10;71.50;;;;;;4974283;28;20437;-81
2022/08/22 01:46:00;;;;;;;1.40;1.23;;;27.10;71.60;;;;;;4956986;28;20445;-82
2022/08/22 01:48:34;;;;;;;1.83;1.30;;;27.10;71.40;;;;;;4944826;28;20453;-81
2022/08/22 01:51:12;;;;;;;1.43;1.33;;;27.10;71.60;;;;;;4974135;28;20576;-81
2022/08/22 01:53:44;;;;;;;2.00;1.40;;;27.10;71.60;;;;;;4974338;28;20449;-82
2022/08/22 01:56:15;;;;;;;1.40;1.30;;;27.10;71.60;;;;;;4980481;28;20528;-81
2022/08/22 01:58:45;;;;;;;1.40;1.30;;;27.10;71.50;;;;;;4979154;28;20429;-81
2022/08/22 02:01:27;;;;;;;1.87;1.40;;;27.10;71.50;;;;;;4978367;28;20560;-93
2022/08/22 02:04:02;;;;;;;1.60;1.50;;;27.10;71.50;;;;;;4974662;28;20441;-82
2022/08/22 02:06:41;;;;;;;1.30;1.20;;;27.10;71.60;;;;;;4974431;28;20484;-83
2022/08/22 02:09:14;;;;;;;1.33;1.20;;;27.10;71.60;;;;;;4973919;28;20544;-82
2022/08/22 02:11:47;;;;;;;2.33;1.57;;;27.10;71.60;;;;;;4973922;28;20579;-81
2022/08/22 02:14:25;;;;;;;1.50;1.30;;;27.10;71.60;;;;;;4977027;28;20850;-82
2022/08/22 02:16:57;;;;;;;1.50;1.40;;;27.10;71.60;;;;;;4977658;28;20515;-92
2022/08/22 02:19:34;;;;;;;1.50;1.40;;;27.10;71.60;;;;;;4977417;28;20437;-92
2022/08/22 02:22:16;;;;;;;1.80;1.30;;;27.10;71.60;;;;;;4977477;28;20543;-82
2022/08/22 02:24:53;;;;;;;1.57;1.47;;;27.10;71.60;;;;;;4977520;28;20441;-82
2022/08/22 02:27:31;;;;;;;1.67;1.57;;;27.10;71.60;;;;;;4977210;28;20802;-82
2022/08/22 02:30:05;;;;;;;2.93;1.40;;;27.10;71.60;;;;;;4977106;28;21113;-82
2022/08/22 02:32:44;;;;;;;1.83;1.73;;;27.10;71.60;;;;;;4977093;28;20536;-81
2022/08/22 02:35:21;;;;;;;1.60;1.50;;;27.10;71.60;;;;;;4977211;28;20453;-82
2022/08/22 02:37:58;;;;;;;1.93;1.23;;;27.10;71.60;;;;;;4977001;28;20481;-81
2022/08/22 02:40:31;;;;;;;2.23;1.60;;;27.10;71.60;;;;;;4976926;28;20457;-81
2022/08/22 02:43:02;;;;;;;1.57;1.47;;;27.10;71.60;;;;;;4977097;28;20448;-82
2022/08/22 02:45:37;;;;;;;1.60;1.50;;;27.10;71.60;;;;;;4977003;28;20532;-82
2022/08/22 02:48:26;;;;;;;1.57;1.47;;;27.10;71.60;;;;;;4977062;28;20523;-93
2022/08/22 02:50:58;;;;;;;1.87;1.60;;;27.10;71.60;;;;;;4976892;28;20488;-83
2022/08/22 02:53:36;;;;;;;1.30;1.20;;;27.10;71.70;;;;;;4976751;28;20488;-82
2022/08/22 02:56:08;;;;;;;1.40;1.30;;;27.10;71.70;;;;;;4976599;28;20437;-82
2022/08/22 02:58:40;;;;;;;1.50;1.40;;;27.10;71.70;;;;;;4976774;28;20453;-82
2022/08/22 03:01:37;;;;;;;4.13;1.50;;;27.10;71.70;;;;;;4976463;28;20984;-82
2022/08/22 03:04:22;;;;;;;1.80;1.20;;;27.10;71.60;;;;;;4976721;28;20536;-93
2022/08/22 03:07:07;;;;;;;2.23;1.53;;;27.10;71.70;;;;;;4976986;28;20469;-81
2022/08/22 03:09:41;;;;;;;1.70;1.60;;;27.10;71.60;;;;;;4976708;28;20460;-82
2022/08/22 03:12:17;;;;;;;1.33;1.23;;;27.10;71.70;;;;;;4976473;28;20457;-83
2022/08/22 03:14:52;;;;;;;1.83;1.73;;;27.10;71.70;;;;;;4976559;28;20445;-89
2022/08/22 03:17:25;;;;;;;1.47;1.37;;;27.10;71.70;;;;;;4976540;28;20772;-82
2022/08/22 03:19:59;;;;;;;1.33;1.23;;;27.10;71.70;;;;;;4976524;28;20951;-81
2022/08/22 03:22:33;;;;;;;2.23;1.93;;;27.10;71.70;;;;;;4976304;28;20528;-92
2022/08/22 03:25:10;;;;;;;1.70;1.40;;;27.10;71.70;;;;;;4976311;28;20540;-93
2022/08/22 03:27:43;;;;;;;1.40;1.30;;;27.10;71.60;;;;;;4976240;28;20472;-81
2022/08/22 03:30:16;;;;;;;1.50;1.40;;;27.10;71.70;;;;;;4975995;28;20572;-89
2022/08/22 03:32:53;;;;;;;3.47;1.83;;;27.10;71.60;;;;;;4976193;28;20460;-92
2022/08/22 03:35:51;;;;;;;1.67;1.57;;;27.10;71.60;;;;;;4976194;28;20437;-91
2022/08/22 03:38:23;;;;;;;1.57;1.47;;;27.10;71.60;;;;;;4975745;28;20449;-82
2022/08/22 03:41:17;;;;;;;2.53;1.70;;;27.10;71.80;;;;;;4976037;28;20456;-81
2022/08/22 03:44:01;;;;;;;1.70;1.60;;;27.10;71.70;;;;;;4975705;28;20452;-81
2022/08/22 03:47:00;;;;;;;2.07;1.40;;;27.10;71.70;;;;;;4975984;28;20481;-92
2022/08/22 03:49:51;;;;;;;1.97;1.77;;;27.10;71.70;;;;;;4975994;28;20863;-82
2022/08/22 03:53:05;;;;;;;2.90;1.70;;;27.10;71.70;;;;;;4976236;28;20522;-83
2022/08/22 03:55:38;;;;;;;1.43;1.33;;;27.10;71.60;;;;;;4975718;28;20497;-82
2022/08/22 03:58:44;;;;;;;1.83;1.73;;;27.00;71.70;;;;;;4975866;28;20816;-82
2022/08/22 04:01:41;;;;;;;2.00;1.63;;;27.10;71.80;;;;;;4975561;28;20477;-94
2022/08/22 04:04:39;;;;;;;2.27;2.07;;;27.10;71.70;;;;;;4975389;28;20533;-81
2022/08/22 04:07:53;;;;;;;1.77;1.67;;;27.10;71.80;;;;;;4975660;28;20445;-82
2022/08/22 04:10:38;;;;;;;2.33;1.80;;;27.10;71.70;;;;;;4944260;28;20462;-81
2022/08/22 04:13:31;;;;;;;1.87;1.40;;;27.00;71.70;;;;;;4976713;28;20452;-82
2022/08/22 04:16:29;;;;;;;1.40;1.30;;;27.10;71.80;;;;;;4975775;28;20450;-82
2022/08/22 04:19:22;;;;;;;2.10;1.87;;;27.00;71.60;;;;;;4975223;28;20859;-82
2022/08/22 04:22:22;;;;;;;2.10;1.60;;;27.00;71.70;;;;;;4972064;28;20487;-82
2022/08/22 04:24:53;;;;;;;1.70;1.60;;;27.00;71.70;;;;;;4955482;28;20533;-82
2022/08/22 04:27:25;;;;;;;1.80;1.70;;;27.00;71.70;;;;;;4975065;28;20536;-92
2022/08/22 04:29:58;;;;;;;1.80;1.70;;;27.00;71.70;;;;;;4974949;28;20875;-92
2022/08/22 04:32:31;;;;;;;1.70;1.60;;;27.10;71.70;;;;;;4975046;28;20493;-92
2022/08/22 04:35:05;;;;;;;2.40;2.20;;;27.00;71.60;;;;;;4974816;28;21006;-81
2022/08/22 04:37:40;;;;;;;2.10;1.80;;;27.00;71.70;;;;;;4975561;28;20847;-81
2022/08/22 04:40:14;;;;;;;2.00;1.90;;;27.00;71.80;;;;;;4974955;28;20611;-83
2022/08/22 04:42:46;;;;;;;2.13;2.03;;;27.00;71.70;;;;;;4974909;28;20452;-90
2022/08/22 04:45:18;;;;;;;2.30;1.53;;;27.00;71.70;;;;;;4974760;28;20524;-82
2022/08/22 04:47:51;;;;;;;2.47;1.80;;;27.00;71.70;;;;;;4974749;28;20457;-83
2022/08/22 04:50:24;;;;;;;2.47;1.83;;;27.00;71.70;;;;;;4974908;28;20445;-82
2022/08/22 04:53:18;;;;;;;1.90;1.67;;;27.00;71.80;;;;;;4978358;28;20477;-82
2022/08/22 04:55:56;;;;;;;1.50;1.40;;;27.00;71.70;;;;;;4972721;28;20429;-87
2022/08/22 04:58:38;;;;;;;1.50;1.40;;;27.00;71.80;;;;;;4983823;23;20523;-82
2022/08/22 05:01:13;;;;;;;1.37;1.27;;;27.00;71.80;;;;;;4955468;28;20473;-82
2022/08/22 05:03:49;;;;;;;1.40;1.30;;;27.00;71.80;;;;;;4955628;29;20449;-82
2022/08/22 05:06:19;;;;;;;2.17;1.57;;;27.00;71.80;;;;;;4955488;29;20457;-93
2022/08/22 05:08:48;;;;;;;2.33;1.80;;;27.00;71.80;;;;;;4955259;29;20473;-82
2022/08/22 05:11:18;;;;;;;1.67;1.57;;;27.00;71.80;;;;;;4955142;29;20484;-94
2022/08/22 05:13:50;;;;;;;2.43;1.60;;;27.10;71.90;;;;;;4955442;29;20944;-82
2022/08/22 05:16:21;;;;;;;1.50;1.40;;;27.00;71.90;;;;;;4955520;29;20541;-84
2022/08/22 05:18:53;;;;;;;1.90;1.80;;;27.00;71.80;;;;;;4955203;29;20537;-82
2022/08/22 05:21:24;;;;;;;3.70;1.80;;;27.00;71.90;;;;;;4955361;29;20454;-82
2022/08/22 05:23:55;;;;;;;4.07;1.53;;;27.00;71.90;;;;;;4955371;29;20461;-83
2022/08/22 05:26:22;;;;;;;4.67;2.17;;;27.00;71.80;;;;;;4955236;29;21024;-82
2022/08/22 05:28:51;;;;;;;1.50;1.40;;;27.00;71.90;;;;;;4955208;29;20434;-82
2022/08/22 05:31:24;;;;;;;1.50;1.40;;;27.00;71.90;;;;;;4955181;28;20517;-81
2022/08/22 05:33:58;;;;;;;1.47;1.37;;;27.00;71.90;;;;;;4955152;29;20446;-89
2022/08/22 05:36:28;;;;;;;2.80;1.60;;;27.00;71.90;;;;;;4955077;29;20457;-82
2022/08/22 05:38:58;;;;;;;1.60;1.50;;;27.00;72.90;;;;;;4954992;29;20456;-82
2022/08/22 05:41:27;;;;;;;2.03;1.83;;;27.00;72.00;;;;;;4954890;29;20450;-81
2022/08/22 05:43:55;;;;;;;2.20;1.70;;;27.00;72.00;;;;;;4954970;29;20442;-82
2022/08/22 05:46:37;;;;;;;1.73;1.50;;;27.00;72.00;;;;;;4954909;28;20954;-82
2022/08/22 05:49:18;;;;;;;2.07;1.93;;;27.10;72.00;;;;;;4957727;29;20473;-83
2022/08/22 05:51:53;;;;;;;1.80;1.67;;;27.10;72.10;;;;;;4958428;29;20528;-82
2022/08/22 05:54:26;;;;;;;2.20;2.00;;;27.10;72.20;;;;;;4958670;29;20442;-82
2022/08/22 05:56:59;;;;;;;2.73;1.80;;;27.10;72.10;;;;;;4958514;29;20804;-92
2022/08/22 05:59:29;;;;;;;2.20;1.83;;;27.10;72.10;;;;;;4958128;28;20544;-83
2022/08/22 06:02:03;;;;;;;2.00;1.57;;;27.10;72.10;;;;;;4958341;29;20446;-83
2022/08/22 06:04:37;;;;;;;2.10;1.93;;;27.10;72.20;;;;;;4958514;29;20437;-87
2022/08/22 06:07:11;;;;;;;1.83;1.73;;;27.10;72.20;;;;;;4958253;29;20446;-82
2022/08/22 06:10:02;;;;;;;2.93;1.70;;;27.10;72.20;;;;;;4958606;29;20445;-93
2022/08/22 06:12:35;;;;;;;1.80;1.70;;;27.10;72.10;;;;;;4958240;29;20500;-92
2022/08/22 06:15:14;;;;;;;2.57;1.80;;;27.10;72.30;;;;;;4958395;29;20878;-82
2022/08/22 06:17:44;;;;;;;2.00;1.60;;;27.10;72.10;;;;;;4958351;29;20449;-82
2022/08/22 06:20:18;;;;;;;2.37;2.10;;;27.10;72.40;;;;;;4958275;29;20450;-82
2022/08/22 06:22:51;;;;;;;1.93;1.83;;;27.10;72.20;;;;;;4958270;29;20536;-81
2022/08/22 06:25:22;;;;;;;2.10;1.97;;;27.10;72.30;;;;;;4957852;29;20446;-81
2022/08/22 06:27:51;;;;;;;3.83;1.63;;;27.10;72.30;;;;;;4957614;29;20446;-81
2022/08/22 06:30:19;;;;;;;2.80;2.50;;;27.10;72.50;;;;;;4957636;28;20876;-83
2022/08/22 06:32:50;;;;;;;3.97;3.60;;;27.20;72.70;;;;;;4957391;29;20505;-81
2022/08/22 06:35:24;;;;;;;7.47;3.97;;;27.10;72.90;;;;;;4957722;29;20458;-80
2022/08/22 06:37:54;;;;;;;5.57;4.13;;;27.10;73.10;;;;;;4956664;29;20961;-81
2022/08/22 06:40:22;;;;;;;5.23;4.00;;;26.90;73.60;;;;;;4958266;29;20446;-94
2022/08/22 06:42:51;;;;;;;4.30;3.87;;;26.80;73.70;;;;;;4957724;29;20445;-80
2022/08/22 06:45:22;;;;;;;6.90;4.27;;;26.80;74.10;;;;;;4957400;29;20450;-80
2022/08/22 06:47:52;;;;;;;4.37;3.97;;;26.70;74.40;;;;;;4957240;29;20537;-80
2022/08/22 06:50:25;;;;;;;6.43;4.73;;;26.70;74.70;;;;;;4956971;29;20446;-81
2022/08/22 06:52:58;;;;;;;7.87;4.13;;;26.70;74.50;;;;;;4957606;29;20513;-85
2022/08/22 06:55:27;;;;;;;8.67;4.10;;;26.70;74.70;;;;;;4956789;29;20545;-81
2022/08/22 06:57:57;;;;;;;4.63;4.13;;;26.70;74.70;;;;;;4956296;28;20454;-89
2022/08/22 07:00:25;;;;;;;4.90;4.13;;;26.70;75.20;;;;;;4956829;29;20977;-83
2022/08/22 07:02:57;;;;;;;6.87;4.60;;;26.60;75.30;;;;;;4956309;29;20455;-82
2022/08/22 07:05:28;;;;;;;9.37;5.53;;;26.70;75.10;;;;;;4955979;29;20449;-81
2022/08/22 07:07:56;;;;;;;14.00;5.57;;;26.70;75.00;;;;;;4955902;29;20463;-82
2022/08/22 07:10:24;;;;;;;5.43;4.63;;;26.60;75.20;;;;;;4955672;29;20553;-82
2022/08/22 07:12:54;;;;;;;5.83;5.13;;;26.60;75.30;;;;;;4955458;29;20576;-82
2022/08/22 07:15:32;;;;;;;5.40;4.73;;;26.60;75.50;;;;;;4955306;29;20457;-81
2022/08/22 07:18:03;;;;;;;9.43;5.37;;;26.60;75.70;;;;;;4956778;29;20442;-81
2022/08/22 07:20:36;;;;;;;5.63;4.87;;;26.50;75.80;;;;;;4956519;29;20442;-84
2022/08/22 07:23:08;;;;;;;9.43;5.03;;;26.50;75.90;;;;;;4953990;28;21977;-84
2022/08/22 07:25:51;;;;;;;7.50;5.00;;;26.60;75.90;;;;;;4957821;29;20476;-84
2022/08/22 07:28:36;;;;;;;8.27;5.53;;;26.80;76.10;;;;;;4957303;29;20455;-82
2022/08/22 07:31:11;;;;;;;6.93;6.17;;;26.60;76.00;;;;;;4954606;29;20485;-87
2022/08/22 07:36:31;;;;;;;7.80;4.73;;;26.70;76.20;;;;;;4943453;29;20459;-85
2022/08/22 09:02:28;;;;;;;2.20;2.00;;;27.20;74.00;;;;;;4917811;29;20428;-86
2022/08/22 09:05:16;;;;;;;3.43;2.20;;;27.20;74.00;;;;;;4917118;29;20475;-86
2022/08/22 09:08:00;;;;;;;3.47;2.10;;;27.20;74.00;;;;;;4916801;29;20440;-85
2022/08/22 09:10:41;;;;;;;2.53;1.93;;;27.30;74.00;;;;;;4922313;29;20915;-86
2022/08/22 09:13:40;;;;;;;4.30;2.40;;;27.30;74.00;;;;;;4918390;29;20494;-86
